Eggertsville, New York
Current Conditions -  °F | °C
As of 9:54 PM on Friday 19 Dec 2014 (Local Time) from KBUF Reporting Station
Overcast Overcast  
Wind Chill: 20°   Ceiling: 2200
Heat Index: 29°   Visibility: 10mi
Dew Point: 21°   Wind: 10mph
Humidity: 72%   Direction: 280°W
Pressure: 30.26"   Gusts: NA
Location:  42.971°N, 78.7987°W
Report Text: KBUF 200254Z 28009KT 10SM OVC022 M02/M06 A3026 RMK AO2 SLP258 T10171061 53008
Loading
Personal Weather Stations






























Interactive Weather Map New forecast layout! Learn more

10-Day Weather Forecast

Advertisements
Track Severe Weather on mobile